sensor_id;sensor_type;location;lat;lon;timestamp;pressure;altitude;pressure_sealevel;temperature;humidity
71795;BME280;59641;45.188;5.712;2023-02-04T00:00:56;100923.09;;;9.11;51.63
71795;BME280;59641;45.188;5.712;2023-02-04T00:03:21;100917.25;;;9.08;51.88
71795;BME280;59641;45.188;5.712;2023-02-04T00:05:47;100922.44;;;9.09;51.93
71795;BME280;59641;45.188;5.712;2023-02-04T00:08:12;100929.47;;;9.10;52.00
71795;BME280;59641;45.188;5.712;2023-02-04T00:10:37;100929.31;;;9.12;51.77
71795;BME280;59641;45.188;5.712;2023-02-04T00:13:03;100930.81;;;9.14;51.73
71795;BME280;59641;45.188;5.712;2023-02-04T00:15:29;100929.97;;;9.14;51.91
71795;BME280;59641;45.188;5.712;2023-02-04T00:17:54;100939.00;;;9.13;51.44
71795;BME280;59641;45.188;5.712;2023-02-04T00:20:20;100930.13;;;9.12;51.55
71795;BME280;59641;45.188;5.712;2023-02-04T00:22:46;100938.16;;;9.12;51.57
71795;BME280;59641;45.188;5.712;2023-02-04T00:25:11;100923.75;;;9.13;51.59
71795;BME280;59641;45.188;5.712;2023-02-04T00:27:37;100929.31;;;9.12;51.37
71795;BME280;59641;45.188;5.712;2023-02-04T00:30:03;100924.78;;;9.12;51.37
71795;BME280;59641;45.188;5.712;2023-02-04T00:32:29;100921.28;;;9.12;51.37
71795;BME280;59641;45.188;5.712;2023-02-04T00:34:54;100915.91;;;9.12;51.46
71795;BME280;59641;45.188;5.712;2023-02-04T00:37:20;100920.41;;;9.11;51.34
71795;BME280;59641;45.188;5.712;2023-02-04T00:39:45;100915.91;;;9.12;51.25
71795;BME280;59641;45.188;5.712;2023-02-04T00:42:11;100909.91;;;9.10;51.17
71795;BME280;59641;45.188;5.712;2023-02-04T00:44:36;100903.72;;;9.09;51.36
71795;BME280;59641;45.188;5.712;2023-02-04T00:47:02;100896.84;;;9.07;51.18
71795;BME280;59641;45.188;5.712;2023-02-04T00:49:28;100904.88;;;9.07;51.20
71795;BME280;59641;45.188;5.712;2023-02-04T00:51:53;100892.50;;;9.06;51.22
71795;BME280;59641;45.188;5.712;2023-02-04T00:54:19;100891.81;;;9.04;51.40
71795;BME280;59641;45.188;5.712;2023-02-04T00:56:44;100895.53;;;9.03;51.27
71795;BME280;59641;45.188;5.712;2023-02-04T00:59:10;100897.38;;;9.02;51.48
71795;BME280;59641;45.188;5.712;2023-02-04T01:01:36;100900.03;;;9.02;51.46
71795;BME280;59641;45.188;5.712;2023-02-04T01:04:01;100902.88;;;9.01;51.49
71795;BME280;59641;45.188;5.712;2023-02-04T01:06:26;100904.91;;;8.99;51.70
71795;BME280;59641;45.188;5.712;2023-02-04T01:08:52;100905.91;;;8.98;51.59
71795;BME280;59641;45.188;5.712;2023-02-04T01:11:18;100899.69;;;8.97;52.04
71795;BME280;59641;45.188;5.712;2023-02-04T01:13:44;100896.19;;;8.96;51.92
71795;BME280;59641;45.188;5.712;2023-02-04T01:16:09;100905.91;;;8.98;51.73
71795;BME280;59641;45.188;5.712;2023-02-04T01:18:35;100901.53;;;8.96;51.98
71795;BME280;59641;45.188;5.712;2023-02-04T01:21:00;100898.88;;;8.96;51.93
71795;BME280;59641;45.188;5.712;2023-02-04T01:23:26;100899.69;;;8.97;51.82
71795;BME280;59641;45.188;5.712;2023-02-04T01:25:51;100895.53;;;8.94;51.77
71795;BME280;59641;45.188;5.712;2023-02-04T01:28:17;100893.72;;;8.95;51.80
71795;BME280;59641;45.188;5.712;2023-02-04T01:30:42;100898.22;;;8.94;51.77
71795;BME280;59641;45.188;5.712;2023-02-04T01:33:07;100903.09;;;8.91;51.87
71795;BME280;59641;45.188;5.712;2023-02-04T01:35:33;100892.53;;;8.89;51.87
71795;BME280;59641;45.188;5.712;2023-02-04T01:37:58;100892.88;;;8.86;51.88
71795;BME280;59641;45.188;5.712;2023-02-04T01:40:23;100894.88;;;8.84;52.08
71795;BME280;59641;45.188;5.712;2023-02-04T01:42:49;100895.91;;;8.83;51.98
71795;BME280;59641;45.188;5.712;2023-02-04T01:45:15;100896.91;;;8.82;51.96
71795;BME280;59641;45.188;5.712;2023-02-04T01:47:40;100892.91;;;8.78;51.93
71795;BME280;59641;45.188;5.712;2023-02-04T01:50:07;100893.59;;;8.72;52.12
71795;BME280;59641;45.188;5.712;2023-02-04T01:52:36;100888.38;;;8.70;52.09
71795;BME280;59641;45.188;5.712;2023-02-04T01:55:05;100895.78;;;8.68;52.35
71795;BME280;59641;45.188;5.712;2023-02-04T01:57:35;100889.56;;;8.68;52.29
71795;BME280;59641;45.188;5.712;2023-02-04T02:00:01;100886.91;;;8.68;52.31
71795;BME280;59641;45.188;5.712;2023-02-04T02:02:47;100889.56;;;8.68;52.16
71795;BME280;59641;45.188;5.712;2023-02-04T02:05:18;100891.41;;;8.67;52.20
71795;BME280;59641;45.188;5.712;2023-02-04T02:07:46;100896.94;;;8.66;52.32
71795;BME280;59641;45.188;5.712;2023-02-04T02:10:12;100890.75;;;8.65;52.29
71795;BME280;59641;45.188;5.712;2023-02-04T02:12:39;100882.56;;;8.67;52.32
71795;BME280;59641;45.188;5.712;2023-02-04T02:15:06;100886.22;;;8.66;52.34
71795;BME280;59641;45.188;5.712;2023-02-04T02:17:32;100870.16;;;8.66;52.37
71795;BME280;59641;45.188;5.712;2023-02-04T02:19:58;100864.81;;;8.66;52.42
71795;BME280;59641;45.188;5.712;2023-02-04T02:22:41;100864.81;;;8.66;52.27
71795;BME280;59641;45.188;5.712;2023-02-04T02:25:09;100865.16;;;8.63;52.50
71795;BME280;59641;45.188;5.712;2023-02-04T02:27:35;100864.34;;;8.62;52.27
71795;BME280;59641;45.188;5.712;2023-02-04T02:30:01;100868.03;;;8.61;52.28
71795;BME280;59641;45.188;5.712;2023-02-04T02:32:26;100855.63;;;8.60;52.23
71795;BME280;59641;45.188;5.712;2023-02-04T02:34:51;100861.19;;;8.59;52.31
71795;BME280;59641;45.188;5.712;2023-02-04T02:37:17;100863.00;;;8.58;52.43
71795;BME280;59641;45.188;5.712;2023-02-04T02:39:43;100851.63;;;8.56;52.44
71795;BME280;59641;45.188;5.712;2023-02-04T02:42:15;100844.78;;;8.53;52.42
71795;BME280;59641;45.188;5.712;2023-02-04T02:44:43;100848.47;;;8.52;52.51
71795;BME280;59641;45.188;5.712;2023-02-04T02:47:14;100841.63;;;8.50;52.56
71795;BME280;59641;45.188;5.712;2023-02-04T02:49:41;100846.63;;;8.53;52.53
71795;BME280;59641;45.188;5.712;2023-02-04T02:52:11;100850.13;;;8.53;52.66
71795;BME280;59641;45.188;5.712;2023-02-04T02:54:38;100844.97;;;8.52;52.54
71795;BME280;59641;45.188;5.712;2023-02-04T02:57:11;100860.00;;;8.53;52.43
71795;BME280;59641;45.188;5.712;2023-02-04T02:59:37;100849.81;;;8.48;52.41
71795;BME280;59641;45.188;5.712;2023-02-04T03:02:03;100852.81;;;8.45;52.33
71795;BME280;59641;45.188;5.712;2023-02-04T03:04:33;100853.47;;;8.39;52.29
71795;BME280;59641;45.188;5.712;2023-02-04T03:07:01;100856.66;;;8.35;52.14
71795;BME280;59641;45.188;5.712;2023-02-04T03:09:28;100844.47;;;8.24;52.19
71795;BME280;59641;45.188;5.712;2023-02-04T03:11:53;100850.16;;;8.21;52.18
71795;BME280;59641;45.188;5.712;2023-02-04T03:14:20;100855.81;;;8.18;52.21
71795;BME280;59641;45.188;5.712;2023-02-04T03:16:47;100857.84;;;8.16;52.29
71795;BME280;59641;45.188;5.712;2023-02-04T03:19:12;100851.81;;;8.14;52.39
71795;BME280;59641;45.188;5.712;2023-02-04T03:21:38;100848.47;;;8.11;52.37
71795;BME280;59641;45.188;5.712;2023-02-04T03:24:05;100853.16;;;8.09;52.47
71795;BME280;59641;45.188;5.712;2023-02-04T03:26:31;100845.13;;;8.09;52.56
71795;BME280;59641;45.188;5.712;2023-02-04T03:28:58;100858.34;;;8.11;52.38
71795;BME280;59641;45.188;5.712;2023-02-04T03:31:23;100857.00;;;8.07;52.34
71795;BME280;59641;45.188;5.712;2023-02-04T03:33:49;100856.50;;;8.03;52.30
71795;BME280;59641;45.188;5.712;2023-02-04T03:36:14;100854.50;;;7.97;52.45
71795;BME280;59641;45.188;5.712;2023-02-04T03:38:39;100854.66;;;7.96;52.50
71795;BME280;59641;45.188;5.712;2023-02-04T03:41:06;100851.81;;;7.97;52.58
71795;BME280;59641;45.188;5.712;2023-02-04T03:43:31;100858.19;;;7.96;52.48
71795;BME280;59641;45.188;5.712;2023-02-04T03:45:57;100862.66;;;7.96;52.66
71795;BME280;59641;45.188;5.712;2023-02-04T03:48:22;100867.03;;;7.97;52.69
71795;BME280;59641;45.188;5.712;2023-02-04T03:50:47;100849.16;;;7.97;52.59
71795;BME280;59641;45.188;5.712;2023-02-04T03:53:13;100869.19;;;8.01;52.51
71795;BME280;59641;45.188;5.712;2023-02-04T03:55:38;100856.16;;;7.98;52.46
71795;BME280;59641;45.188;5.712;2023-02-04T03:58:04;100854.97;;;7.93;52.39
71795;BME280;59641;45.188;5.712;2023-02-04T04:00:29;100851.97;;;7.87;52.44
71795;BME280;59641;45.188;5.712;2023-02-04T04:02:56;100844.78;;;7.88;52.59
71795;BME280;59641;45.188;5.712;2023-02-04T04:05:22;100832.25;;;7.88;52.45
71795;BME280;59641;45.188;5.712;2023-02-04T04:07:47;100841.28;;;7.87;52.58
71795;BME280;59641;45.188;5.712;2023-02-04T04:10:13;100842.13;;;7.88;52.58
71795;BME280;59641;45.188;5.712;2023-02-04T04:12:38;100837.44;;;7.90;52.54
71795;BME280;59641;45.188;5.712;2023-02-04T04:15:04;100842.63;;;7.83;52.46
71795;BME280;59641;45.188;5.712;2023-02-04T04:17:29;100836.78;;;7.80;52.58
71795;BME280;59641;45.188;5.712;2023-02-04T04:19:55;100838.63;;;7.79;52.49
71795;BME280;59641;45.188;5.712;2023-02-04T04:22:20;100837.75;;;7.79;52.49
71795;BME280;59641;45.188;5.712;2023-02-04T04:24:45;100834.59;;;7.75;52.48
71795;BME280;59641;45.188;5.712;2023-02-04T04:27:11;100840.78;;;7.76;52.68
71795;BME280;59641;45.188;5.712;2023-02-04T04:29:36;100838.94;;;7.76;52.52
71795;BME280;59641;45.188;5.712;2023-02-04T04:32:02;100846.28;;;7.74;52.62
71795;BME280;59641;45.188;5.712;2023-02-04T04:34:29;100834.75;;;7.74;52.67
71795;BME280;59641;45.188;5.712;2023-02-04T04:36:54;100828.72;;;7.72;52.50
71795;BME280;59641;45.188;5.712;2023-02-04T04:39:20;100827.91;;;7.71;52.67
71795;BME280;59641;45.188;5.712;2023-02-04T04:41:46;100837.63;;;7.72;52.72
71795;BME280;59641;45.188;5.712;2023-02-04T04:44:11;100846.75;;;7.69;52.52
71795;BME280;59641;45.188;5.712;2023-02-04T04:46:37;100839.09;;;7.66;52.81
71795;BME280;59641;45.188;5.712;2023-02-04T04:49:05;100844.44;;;7.66;52.73
71795;BME280;59641;45.188;5.712;2023-02-04T04:51:30;100840.09;;;7.65;52.74
71795;BME280;59641;45.188;5.712;2023-02-04T04:53:56;100847.28;;;7.65;52.85
71795;BME280;59641;45.188;5.712;2023-02-04T04:56:21;100850.09;;;7.63;52.78
71795;BME280;59641;45.188;5.712;2023-02-04T04:58:47;100849.09;;;7.64;52.89
71795;BME280;59641;45.188;5.712;2023-02-04T05:01:12;100857.78;;;7.66;52.77
71795;BME280;59641;45.188;5.712;2023-02-04T05:03:37;100861.28;;;7.67;52.70
71795;BME280;59641;45.188;5.712;2023-02-04T05:06:03;100854.13;;;7.67;52.59
71795;BME280;59641;45.188;5.712;2023-02-04T05:08:28;100843.44;;;7.67;52.84
71795;BME280;59641;45.188;5.712;2023-02-04T05:10:54;100849.63;;;7.68;52.58
71795;BME280;59641;45.188;5.712;2023-02-04T05:13:19;100848.78;;;7.67;52.73
71795;BME280;59641;45.188;5.712;2023-02-04T05:15:44;100849.63;;;7.68;52.77
71795;BME280;59641;45.188;5.712;2023-02-04T05:18:10;100849.63;;;7.68;52.87
71795;BME280;59641;45.188;5.712;2023-02-04T05:20:35;100850.09;;;7.72;52.74
71795;BME280;59641;45.188;5.712;2023-02-04T05:23:00;100852.97;;;7.70;52.78
71795;BME280;59641;45.188;5.712;2023-02-04T05:25:27;100861.97;;;7.69;52.60
71795;BME280;59641;45.188;5.712;2023-02-04T05:27:53;100856.81;;;7.67;52.62
71795;BME280;59641;45.188;5.712;2023-02-04T05:30:18;100855.13;;;7.66;52.72
71795;BME280;59641;45.188;5.712;2023-02-04T05:32:43;100855.94;;;7.67;52.47
71795;BME280;59641;45.188;5.712;2023-02-04T05:35:09;100847.59;;;7.62;52.77
71795;BME280;59641;45.188;5.712;2023-02-04T05:37:34;100862.63;;;7.63;52.84
71795;BME280;59641;45.188;5.712;2023-02-04T05:39:59;100867.78;;;7.64;52.91
71795;BME280;59641;45.188;5.712;2023-02-04T05:42:25;100873.13;;;7.64;52.71
71795;BME280;59641;45.188;5.712;2023-02-04T05:44:50;100865.97;;;7.65;52.74
71795;BME280;59641;45.188;5.712;2023-02-04T05:47:16;100875.81;;;7.64;52.72
71795;BME280;59641;45.188;5.712;2023-02-04T05:49:42;100867.13;;;7.62;52.69
71795;BME280;59641;45.188;5.712;2023-02-04T05:52:08;100866.97;;;7.64;52.64
71795;BME280;59641;45.188;5.712;2023-02-04T05:54:33;100868.97;;;7.62;52.55
71795;BME280;59641;45.188;5.712;2023-02-04T05:56:58;100870.31;;;7.58;52.49
71795;BME280;59641;45.188;5.712;2023-02-04T05:59:24;100887.50;;;7.55;52.65
71795;BME280;59641;45.188;5.712;2023-02-04T06:01:49;100876.97;;;7.54;52.84
71795;BME280;59641;45.188;5.712;2023-02-04T06:04:15;100879.78;;;7.52;52.58
71795;BME280;59641;45.188;5.712;2023-02-04T06:06:41;100879.13;;;7.50;52.76
71795;BME280;59641;45.188;5.712;2023-02-04T06:09:07;100873.97;;;7.49;52.94
71795;BME280;59641;45.188;5.712;2023-02-04T06:11:32;100884.63;;;7.49;52.72
71795;BME280;59641;45.188;5.712;2023-02-04T06:13:58;100874.09;;;7.47;52.66
71795;BME280;59641;45.188;5.712;2023-02-04T06:16:23;100873.44;;;7.45;52.84
71795;BME280;59641;45.188;5.712;2023-02-04T06:18:48;100882.28;;;7.45;52.82
71795;BME280;59641;45.188;5.712;2023-02-04T06:21:14;100891.16;;;7.46;52.85
71795;BME280;59641;45.188;5.712;2023-02-04T06:23:39;100884.78;;;7.47;53.10
71795;BME280;59641;45.188;5.712;2023-02-04T06:26:05;100878.47;;;7.48;52.96
71795;BME280;59641;45.188;5.712;2023-02-04T06:28:30;100882.78;;;7.49;52.92
71795;BME280;59641;45.188;5.712;2023-02-04T06:30:55;100885.47;;;7.49;52.88
71795;BME280;59641;45.188;5.712;2023-02-04T06:33:21;100886.97;;;7.43;52.73
71795;BME280;59641;45.188;5.712;2023-02-04T06:35:48;100894.25;;;7.33;52.85
71795;BME280;59641;45.188;5.712;2023-02-04T06:38:14;100900.06;;;7.29;53.06
71795;BME280;59641;45.188;5.712;2023-02-04T06:40:39;100892.06;;;7.29;53.21
71795;BME280;59641;45.188;5.712;2023-02-04T06:43:05;100902.59;;;7.30;53.19
71795;BME280;59641;45.188;5.712;2023-02-04T06:45:30;100904.28;;;7.31;53.15
71795;BME280;59641;45.188;5.712;2023-02-04T06:47:56;100895.25;;;7.32;53.18
71795;BME280;59641;45.188;5.712;2023-02-04T06:50:21;100893.28;;;7.34;53.25
71795;BME280;59641;45.188;5.712;2023-02-04T06:52:47;100902.13;;;7.35;53.19
71795;BME280;59641;45.188;5.712;2023-02-04T06:55:13;100900.44;;;7.34;53.01
71795;BME280;59641;45.188;5.712;2023-02-04T06:57:39;100910.13;;;7.35;53.14
71795;BME280;59641;45.188;5.712;2023-02-04T07:00:06;100908.47;;;7.34;53.09
71795;BME280;59641;45.188;5.712;2023-02-04T07:02:31;100902.25;;;7.33;53.05
71795;BME280;59641;45.188;5.712;2023-02-04T07:04:57;100913.63;;;7.35;53.24
71795;BME280;59641;45.188;5.712;2023-02-04T07:07:24;100907.31;;;7.36;53.13
71795;BME280;59641;45.188;5.712;2023-02-04T07:09:49;100917.81;;;7.38;53.08
71795;BME280;59641;45.188;5.712;2023-02-04T07:12:15;100919.97;;;7.34;53.04
71795;BME280;59641;45.188;5.712;2023-02-04T07:14:40;100920.13;;;7.33;53.09
71795;BME280;59641;45.188;5.712;2023-02-04T07:17:06;100922.44;;;7.28;53.19
71795;BME280;59641;45.188;5.712;2023-02-04T07:19:31;100924.28;;;7.27;53.38
71795;BME280;59641;45.188;5.712;2023-02-04T07:21:57;100923.13;;;7.30;53.53
71795;BME280;59641;45.188;5.712;2023-02-04T07:24:23;100923.63;;;7.33;53.34
71795;BME280;59641;45.188;5.712;2023-02-04T07:26:49;100916.47;;;7.34;53.27
71795;BME280;59641;45.188;5.712;2023-02-04T07:29:14;100913.81;;;7.34;53.42
71795;BME280;59641;45.188;5.712;2023-02-04T07:31:40;100918.13;;;7.35;53.29
71795;BME280;59641;45.188;5.712;2023-02-04T07:34:05;100912.47;;;7.38;53.25
71795;BME280;59641;45.188;5.712;2023-02-04T07:36:30;100917.44;;;7.33;53.10
71795;BME280;59641;45.188;5.712;2023-02-04T07:38:56;100924.78;;;7.31;53.29
71795;BME280;59641;45.188;5.712;2023-02-04T07:41:21;100934.63;;;7.30;53.17
71795;BME280;59641;45.188;5.712;2023-02-04T07:43:47;100939.28;;;7.28;53.22
71795;BME280;59641;45.188;5.712;2023-02-04T07:46:12;100940.63;;;7.24;53.40
71795;BME280;59641;45.188;5.712;2023-02-04T07:48:38;100940.78;;;7.22;53.27
71795;BME280;59641;45.188;5.712;2023-02-04T07:51:03;100944.06;;;7.16;53.22
71795;BME280;59641;45.188;5.712;2023-02-04T07:53:29;100940.22;;;7.11;53.52
71795;BME280;59641;45.188;5.712;2023-02-04T07:55:54;100934.72;;;7.12;53.50
71795;BME280;59641;45.188;5.712;2023-02-04T07:58:20;100927.50;;;7.04;53.36
71795;BME280;59641;45.188;5.712;2023-02-04T08:00:45;100936.66;;;7.02;53.79
71795;BME280;59641;45.188;5.712;2023-02-04T08:03:10;100938.66;;;7.00;53.59
71795;BME280;59641;45.188;5.712;2023-02-04T08:05:36;100938.50;;;7.01;53.60
71795;BME280;59641;45.188;5.712;2023-02-04T08:08:01;100931.31;;;7.02;53.58
71795;BME280;59641;45.188;5.712;2023-02-04T08:10:27;100928.50;;;7.03;53.63
71795;BME280;59641;45.188;5.712;2023-02-04T08:12:52;100929.50;;;7.02;53.52
71795;BME280;59641;45.188;5.712;2023-02-04T08:15:17;100936.66;;;7.02;53.55
71795;BME280;59641;45.188;5.712;2023-02-04T08:17:43;100929.19;;;7.06;53.48
71795;BME280;59641;45.188;5.712;2023-02-04T08:20:09;100927.81;;;7.01;53.52
71795;BME280;59641;45.188;5.712;2023-02-04T08:22:35;100928.50;;;7.03;53.54
71795;BME280;59641;45.188;5.712;2023-02-04T08:25:02;100938.00;;;7.06;53.57
71795;BME280;59641;45.188;5.712;2023-02-04T08:27:27;100936.03;;;7.08;53.50
71795;BME280;59641;45.188;5.712;2023-02-04T08:29:53;100936.72;;;7.10;53.54
71795;BME280;59641;45.188;5.712;2023-02-04T08:32:19;100931.06;;;7.13;53.35
71795;BME280;59641;45.188;5.712;2023-02-04T08:34:44;100930.69;;;7.08;53.39
71795;BME280;59641;45.188;5.712;2023-02-04T08:37:12;100935.34;;;7.06;53.34
71795;BME280;59641;45.188;5.712;2023-02-04T08:39:37;100936.34;;;7.05;53.43
71795;BME280;59641;45.188;5.712;2023-02-04T08:42:04;100937.66;;;7.01;53.53
71795;BME280;59641;45.188;5.712;2023-02-04T08:44:29;100940.47;;;6.99;53.47
71795;BME280;59641;45.188;5.712;2023-02-04T08:46:55;100940.66;;;6.98;53.37
71795;BME280;59641;45.188;5.712;2023-02-04T08:49:20;100942.31;;;6.99;53.67
71795;BME280;59641;45.188;5.712;2023-02-04T08:51:45;100947.66;;;6.99;53.54
71795;BME280;59641;45.188;5.712;2023-02-04T08:54:11;100948.81;;;6.96;53.38
71795;BME280;59641;45.188;5.712;2023-02-04T08:56:36;100946.81;;;6.98;53.27
71795;BME280;59641;45.188;5.712;2023-02-04T08:59:01;100951.47;;;6.96;53.22
71795;BME280;59641;45.188;5.712;2023-02-04T09:01:27;100946.28;;;6.95;53.29
71795;BME280;59641;45.188;5.712;2023-02-04T09:03:52;100943.31;;;6.98;53.29
71795;BME280;59641;45.188;5.712;2023-02-04T09:06:17;100946.97;;;6.97;53.22
71795;BME280;59641;45.188;5.712;2023-02-04T09:08:43;100942.47;;;6.97;53.13
71795;BME280;59641;45.188;5.712;2023-02-04T09:11:08;100939.78;;;6.97;53.32
71795;BME280;59641;45.188;5.712;2023-02-04T09:13:36;100942.00;;;7.02;53.18
71795;BME280;59641;45.188;5.712;2023-02-04T09:16:02;100941.69;;;7.05;53.27
71795;BME280;59641;45.188;5.712;2023-02-04T09:18:27;100942.06;;;7.10;53.22
71795;BME280;59641;45.188;5.712;2023-02-04T09:20:55;100943.91;;;7.18;53.19
71795;BME280;59641;45.188;5.712;2023-02-04T09:23:20;100948.78;;;7.22;52.99
71795;BME280;59641;45.188;5.712;2023-02-04T09:25:47;100949.28;;;7.26;52.97
71795;BME280;59641;45.188;5.712;2023-02-04T09:28:14;100943.81;;;7.28;52.85
71795;BME280;59641;45.188;5.712;2023-02-04T09:30:42;100949.69;;;7.31;52.80
71795;BME280;59641;45.188;5.712;2023-02-04T09:33:09;100950.31;;;7.33;52.84
71795;BME280;59641;45.188;5.712;2023-02-04T09:35:34;100956.19;;;7.37;52.74
71795;BME280;59641;45.188;5.712;2023-02-04T09:38:00;100952.22;;;7.41;52.78
71795;BME280;59641;45.188;5.712;2023-02-04T09:40:31;100954.56;;;7.44;52.69
71795;BME280;59641;45.188;5.712;2023-02-04T09:43:00;100954.09;;;7.49;52.72
71795;BME280;59641;45.188;5.712;2023-02-04T09:45:27;100956.44;;;7.52;52.46
71795;BME280;59641;45.188;5.712;2023-02-04T09:47:55;100953.59;;;7.53;52.36
71795;BME280;59641;45.188;5.712;2023-02-04T09:50:23;100953.28;;;7.56;52.41
71795;BME280;59641;45.188;5.712;2023-02-04T09:52:50;100964.47;;;7.60;52.52
71795;BME280;59641;45.188;5.712;2023-02-04T09:55:20;100965.00;;;7.63;52.51
71795;BME280;59641;45.188;5.712;2023-02-04T09:57:47;100954.81;;;7.67;52.55
71795;BME280;59641;45.188;5.712;2023-02-04T10:00:24;100956.00;;;7.73;52.39
71795;BME280;59641;45.188;5.712;2023-02-04T10:02:50;100960.00;;;7.77;52.19
71795;BME280;59641;45.188;5.712;2023-02-04T10:05:18;100953.53;;;7.79;52.29
71795;BME280;59641;45.188;5.712;2023-02-04T10:07:44;100952.53;;;7.80;52.12
71795;BME280;59641;45.188;5.712;2023-02-04T10:10:16;100954.69;;;7.85;52.40
71795;BME280;59641;45.188;5.712;2023-02-04T10:12:43;100953.38;;;7.89;52.17
71795;BME280;59641;45.188;5.712;2023-02-04T10:15:17;100958.91;;;7.96;52.15
71795;BME280;59641;45.188;5.712;2023-02-04T10:17:47;100963.94;;;7.99;52.17
71795;BME280;59641;45.188;5.712;2023-02-04T10:20:21;100957.09;;;8.04;52.20
71795;BME280;59641;45.188;5.712;2023-02-04T10:22:49;100957.41;;;8.09;52.09
71795;BME280;59641;45.188;5.712;2023-02-04T10:25:20;100966.78;;;8.14;52.01
71795;BME280;59641;45.188;5.712;2023-02-04T10:27:54;100960.09;;;8.18;52.03
71795;BME280;59641;45.188;5.712;2023-02-04T10:30:22;100962.28;;;8.22;51.86
71795;BME280;59641;45.188;5.712;2023-02-04T10:32:48;100958.28;;;8.26;51.92
71795;BME280;59641;45.188;5.712;2023-02-04T10:35:16;100946.41;;;8.29;51.96
71795;BME280;59641;45.188;5.712;2023-02-04T10:37:42;100953.13;;;8.33;51.91
71795;BME280;59641;45.188;5.712;2023-02-04T10:40:25;100956.00;;;8.40;52.05
71795;BME280;59641;45.188;5.712;2023-02-04T10:42:51;100954.63;;;8.44;51.79
71795;BME280;59641;45.188;5.712;2023-02-04T10:45:28;100953.16;;;8.49;51.61
71795;BME280;59641;45.188;5.712;2023-02-04T10:47:55;100951.47;;;8.48;51.61
71795;BME280;59641;45.188;5.712;2023-02-04T10:50:24;100956.81;;;8.48;51.44
71795;BME280;59641;45.188;5.712;2023-02-04T10:52:56;100943.13;;;8.51;51.66
71795;BME280;59641;45.188;5.712;2023-02-04T10:55:43;100944.44;;;8.56;51.70
71795;BME280;59641;45.188;5.712;2023-02-04T10:58:11;100945.63;;;8.61;51.60
71795;BME280;59641;45.188;5.712;2023-02-04T11:00:39;100940.59;;;8.66;51.80
71795;BME280;59641;45.188;5.712;2023-02-04T11:03:21;100937.91;;;8.74;51.65
71795;BME280;59641;45.188;5.712;2023-02-04T11:05:47;100929.38;;;8.79;51.34
71795;BME280;59641;45.188;5.712;2023-02-04T11:08:31;100929.03;;;8.82;51.39
71795;BME280;59641;45.188;5.712;2023-02-04T11:10:59;100938.38;;;8.86;51.32
71795;BME280;59641;45.188;5.712;2023-02-04T11:13:39;100921.00;;;8.90;51.43
71795;BME280;59641;45.188;5.712;2023-02-04T11:21:25;100910.25;;;8.99;50.95
71795;BME280;59641;45.188;5.712;2023-02-04T11:26:34;100906.91;;;9.05;51.12
71795;BME280;59641;45.188;5.712;2023-02-04T11:31:27;100902.16;;;9.15;50.91
71795;BME280;59641;45.188;5.712;2023-02-04T11:34:08;100900.81;;;9.19;50.86
71795;BME280;59641;45.188;5.712;2023-02-04T11:36:37;100903.00;;;9.24;50.68
71795;BME280;59641;45.188;5.712;2023-02-04T11:39:15;100886.56;;;9.27;50.30
71795;BME280;59641;45.188;5.712;2023-02-04T11:41:43;100889.59;;;9.24;50.35
71795;BME280;59641;45.188;5.712;2023-02-04T11:44:09;100890.59;;;9.23;50.55
71795;BME280;59641;45.188;5.712;2023-02-04T11:46:35;100874.16;;;9.26;50.33
71795;BME280;59641;45.188;5.712;2023-02-04T11:49:01;100882.53;;;9.31;50.68
71795;BME280;59641;45.188;5.712;2023-02-04T11:51:33;100876.00;;;9.33;50.57
71795;BME280;59641;45.188;5.712;2023-02-04T11:53:59;100867.25;;;9.39;50.71
71795;BME280;59641;45.188;5.712;2023-02-04T11:56:27;100864.03;;;9.44;50.54
71795;BME280;59641;45.188;5.712;2023-02-04T11:58:55;100862.50;;;9.50;50.64
71795;BME280;59641;45.188;5.712;2023-02-04T12:01:30;100849.22;;;9.56;50.73
71795;BME280;59641;45.188;5.712;2023-02-04T12:03:58;100846.00;;;9.61;50.69
71795;BME280;59641;45.188;5.712;2023-02-04T12:06:29;100842.16;;;9.64;50.82
71795;BME280;59641;45.188;5.712;2023-02-04T12:09:05;100844.97;;;9.70;50.66
71795;BME280;59641;45.188;5.712;2023-02-04T12:11:31;100831.56;;;9.70;50.66
71795;BME280;59641;45.188;5.712;2023-02-04T12:14:09;100825.81;;;9.73;50.83
71795;BME280;59641;45.188;5.712;2023-02-04T12:16:49;100832.69;;;9.76;50.88
71795;BME280;59641;45.188;5.712;2023-02-04T12:19:17;100825.13;;;9.79;51.15
71795;BME280;59641;45.188;5.712;2023-02-04T12:21:43;100817.38;;;9.85;51.07
71795;BME280;59641;45.188;5.712;2023-02-04T12:24:08;100812.13;;;9.91;51.20
71795;BME280;59641;45.188;5.712;2023-02-04T12:26:34;100805.22;;;9.97;51.43
71795;BME280;59641;45.188;5.712;2023-02-04T12:28:59;100802.66;;;10.03;51.45
71795;BME280;59641;45.188;5.712;2023-02-04T12:31:28;100793.84;;;10.10;51.56
71795;BME280;59641;45.188;5.712;2023-02-04T12:33:53;100793.31;;;10.14;51.78
71795;BME280;59641;45.188;5.712;2023-02-04T12:36:19;100787.41;;;10.19;51.65
71795;BME280;59641;45.188;5.712;2023-02-04T12:38:44;100779.84;;;10.22;51.56
71795;BME280;59641;45.188;5.712;2023-02-04T12:41:10;100788.50;;;10.24;52.25
71795;BME280;59641;45.188;5.712;2023-02-04T12:43:35;100787.34;;;10.27;52.28
71795;BME280;59641;45.188;5.712;2023-02-04T12:46:01;100781.63;;;10.30;52.09
71795;BME280;59641;45.188;5.712;2023-02-04T12:48:26;100784.13;;;10.32;52.63
71795;BME280;59641;45.188;5.712;2023-02-04T12:50:51;100770.34;;;10.35;52.71
71795;BME280;59641;45.188;5.712;2023-02-04T12:53:17;100776.66;;;10.42;52.75
71795;BME280;59641;45.188;5.712;2023-02-04T12:55:42;100762.03;;;10.44;53.62
71795;BME280;59641;45.188;5.712;2023-02-04T12:58:07;100761.47;;;10.49;53.46
71795;BME280;59641;45.188;5.712;2023-02-04T13:00:33;100755.56;;;10.54;53.68
71795;BME280;59641;45.188;5.712;2023-02-04T13:02:59;100744.06;;;10.60;53.52
71795;BME280;59641;45.188;5.712;2023-02-04T13:05:24;100746.00;;;10.66;53.40
71795;BME280;59641;45.188;5.712;2023-02-04T13:07:49;100741.75;;;10.72;53.91